North New Portland, ME (04961)

7:27 AM EDT on September 05, 2015 (GMT -0400)
Gilman Pond | | Change Station
CLOSE
Current Station
Personal Weather Station
Location: New Portland, ME
Elevation: 400 ft
Nearby Weather Stations

Elev 400 ft 44.94 °N, 70.06 °W | Updated 12 seconds ago

Mostly Cloudy
Mostly Cloudy
50.0 °F
Feels Like 50.0 °F
N
0.0
Wind Variable Wind from North
Gusts 0.0 mph

Today
High -- | Low -- °F
--% Chance of Precip.
Yesterday
High -- | Low -- °F
Precip. -- in
6:06 AM 7:10 PM
Waning Gibbous, 49% visible
Pressure 30.29 in
Visibility 10.0 miles
Clouds Few 200 ft
Dew Point 50 °F
Humidity 99%
Rainfall 0.00 in
Snow Depth Not available.
UV 1.0 out of 12
Pollen 6.60 out of 12
Air Quality Not available.
Flu Activity Not available.
METAR KAUG 051053Z AUTO 00000KT 10SM FEW002 11/11 A3029 RMK AO2 SLP256 T01110111
Pressure 30.29 in
Visibility 10.0 miles
Clouds Few 200 ft
Dew Point 50 °F
Humidity 99%
Rainfall 0.00 in
Snow Depth Not available.
UV 1.0 out of 12
Pollen 6.60 out of 12
Air Quality Not available.
Flu Activity Not available.
METAR KAUG 051053Z AUTO 00000KT 10SM FEW002 11/11 A3029 RMK AO2 SLP256 T01110111

10-Day Weather Forecast

×

Almanac

Astronomy

Sep. 05, 2015 Rise Set
Actual Time
Civil Twilight
Nautical Twilight
Astronomical Twilight
Moon
Length of Visible Light
Length of Day
Tomorrow will be .
, % of the Moon is Illuminated

Today's Extremes

State Highs State Lows

Community

WunderPhotos

Upload Photos

1,852,445 photos uploaded!

WunderBlogs® & News

Nearby

Air Quality

  Air Quality AQ Index Pollutant
Not available.

Snow Depth

Station Depth Elevation

Earthquake Activity

City Distance Mag. Time & Date
Minimum magnitude displayed is 2.5.

Coastal Water Temperatures

Place Temperature

Stations

Nearby Weather Stations

Station Location Temp. Windchill Dew Point Humidity Wind Precip. Elev Updated Type